Time;durP1;ratioP1;P1;durP2;ratioP2;P2;SDS_P1;SDS_P2;PMS_P1;PMS_P2;Temp;Humidity;BMP_temperature;BMP_pressure;BME280_temperature;BME280_humidity;BME280_pressure;Samples;Min_cycle;Max_cycle;Signal;HPM_P1;HPM_P2
2023/09/10 00:00:14;;;;;;;13.77;8.90;;;;;;;17.02;100.00;100893.03;693112;28;5412;-63
2023/09/10 00:00:35;;;;;;;14.00;9.55;;;;;;;17.02;100.00;100893.88;692104;28;1754;-63
2023/09/10 00:00:55;;;;;;;11.82;9.57;;;;;;;17.02;100.00;100893.88;693139;28;1278;-63
2023/09/10 00:01:15;;;;;;;11.00;9.50;;;;;;;17.01;100.00;100894.78;690511;28;1295;-63
2023/09/10 00:01:36;;;;;;;11.13;9.67;;;;;;;16.99;100.00;100899.25;688913;28;4756;-63
2023/09/10 00:01:56;;;;;;;11.37;9.60;;;;;;;16.99;100.00;100895.75;689640;28;1513;-63
2023/09/10 00:02:17;;;;;;;11.63;9.48;;;;;;;16.97;100.00;100893.13;690160;28;1259;-63
2023/09/10 00:02:37;;;;;;;11.93;9.30;;;;;;;17.00;100.00;100895.72;690402;28;1410;-63
2023/09/10 00:02:57;;;;;;;14.00;9.70;;;;;;;17.01;100.00;100892.16;689728;28;1516;-63
2023/09/10 00:03:18;;;;;;;14.20;9.87;;;;;;;17.01;100.00;100897.44;692224;28;2275;-63
2023/09/10 00:03:38;;;;;;;13.95;9.50;;;;;;;16.99;100.00;100893.13;693607;28;1425;-63
2023/09/10 00:03:59;;;;;;;11.37;9.53;;;;;;;16.97;100.00;100890.50;693197;28;1488;-63
2023/09/10 00:04:19;;;;;;;12.40;9.80;;;;;;;16.95;100.00;100894.97;691424;28;1942;-63
2023/09/10 00:04:39;;;;;;;13.20;9.88;;;;;;;16.95;100.00;100897.63;692843;28;4486;-63
2023/09/10 00:05:00;;;;;;;12.73;9.73;;;;;;;16.99;100.00;100893.97;693115;28;1200;-63
2023/09/10 00:05:20;;;;;;;11.93;9.67;;;;;;;16.99;100.00;100893.97;692204;28;2559;-63
2023/09/10 00:05:40;;;;;;;11.63;9.77;;;;;;;16.99;100.00;100891.34;693497;28;1518;-63
2023/09/10 00:06:06;;;;;;;11.90;9.10;;;;;;;16.99;100.00;100893.97;692895;28;1222;-63
2023/09/10 00:06:26;;;;;;;11.38;9.40;;;;;;;17.00;100.00;100894.84;690396;28;1574;-62
2023/09/10 00:06:46;;;;;;;11.90;9.53;;;;;;;16.95;100.00;100892.34;693172;28;1238;-63
2023/09/10 00:07:08;;;;;;;11.93;9.47;;;;;;;16.92;100.00;100892.44;693322;28;1315;-63
2023/09/10 00:07:28;;;;;;;13.35;9.30;;;;;;;16.93;100.00;100893.28;691481;28;4429;-63
2023/09/10 00:07:48;;;;;;;11.53;9.77;;;;;;;16.90;100.00;100891.59;693823;28;1219;-63
2023/09/10 00:08:09;;;;;;;13.23;10.07;;;;;;;16.88;100.00;100901.31;693212;28;1290;-63
2023/09/10 00:08:32;;;;;;;13.80;10.30;;;;;;;16.87;100.00;100894.28;691993;28;1764;-63
2023/09/10 00:08:52;;;;;;;12.65;9.88;;;;;;;16.85;100.00;100890.84;693341;28;1282;-63
2023/09/10 00:09:12;;;;;;;12.13;9.93;;;;;;;16.86;100.00;100892.53;693496;28;1480;-63
2023/09/10 00:09:33;;;;;;;11.90;9.97;;;;;;;16.90;100.00;100896.00;692225;28;2556;-63
2023/09/10 00:09:53;;;;;;;11.77;9.85;;;;;;;16.91;100.00;100895.97;693343;28;1310;-63
2023/09/10 00:10:14;;;;;;;11.57;9.90;;;;;;;16.92;100.00;100892.44;692676;28;1255;-64
2023/09/10 00:10:34;;;;;;;11.57;9.63;;;;;;;16.94;100.00;100890.59;691464;28;4485;-63
2023/09/10 00:10:58;;;;;;;11.30;9.53;;;;;;;16.94;100.00;100892.38;693435;28;1223;-63
2023/09/10 00:11:21;;;;;;;12.15;9.60;;;;;;;16.92;100.00;100895.06;691912;28;1975;-63
2023/09/10 00:11:41;;;;;;;11.68;9.20;;;;;;;16.91;100.00;100885.41;691832;28;1381;-63
2023/09/10 00:12:01;;;;;;;11.63;9.37;;;;;;;16.92;100.00;100897.72;693263;28;1251;-63
2023/09/10 00:12:22;;;;;;;12.40;9.32;;;;;;;16.92;100.00;100892.44;689049;28;1916;-63
2023/09/10 00:12:42;;;;;;;12.37;9.47;;;;;;;16.92;100.00;100892.44;690023;28;1290;-63
2023/09/10 00:13:03;;;;;;;12.20;9.70;;;;;;;16.90;100.00;100890.72;689519;28;1239;-63
2023/09/10 00:13:25;;;;;;;11.65;9.35;;;;;;;16.89;100.00;100887.25;688714;28;4413;-63
2023/09/10 00:13:45;;;;;;;13.13;9.68;;;;;;;16.88;100.00;100889.84;690027;28;1239;-63
2023/09/10 00:14:06;;;;;;;11.47;9.37;;;;;;;16.88;100.00;100893.38;690680;28;899;-63
2023/09/10 00:14:26;;;;;;;10.60;9.05;;;;;;;16.89;100.00;100891.63;688158;28;1734;-63
2023/09/10 00:14:47;;;;;;;10.65;9.55;;;;;;;16.88;100.00;100890.75;690431;28;1176;-63
2023/09/10 00:15:07;;;;;;;10.87;9.10;;;;;;;16.89;100.00;100889.88;690531;28;1235;-63
2023/09/10 00:15:28;;;;;;;11.60;9.30;;;;;;;16.91;100.00;100892.47;689279;28;1531;-63
2023/09/10 00:15:48;;;;;;;11.73;9.77;;;;;;;16.90;100.00;100894.22;693233;28;1345;-63
2023/09/10 00:16:08;;;;;;;12.37;9.60;;;;;;;16.89;100.00;100891.63;693749;28;1275;-63
2023/09/10 00:16:29;;;;;;;11.23;9.53;;;;;;;16.85;100.00;100891.69;691439;28;4714;-63
2023/09/10 00:16:49;;;;;;;11.67;9.60;;;;;;;16.83;100.00;100888.22;692330;28;1385;-63
2023/09/10 00:17:09;;;;;;;11.52;9.55;;;;;;;16.84;100.00;100891.72;693381;28;1330;-63
2023/09/10 00:17:30;;;;;;;14.90;9.73;;;;;;;16.85;100.00;100890.84;692304;28;1681;-63
2023/09/10 00:17:52;;;;;;;15.35;9.77;;;;;;;16.86;100.00;100887.25;692851;28;1353;-63
2023/09/10 00:18:14;;;;;;;11.35;9.75;;;;;;;16.88;100.00;100892.50;693276;28;1226;-63
2023/09/10 00:18:35;;;;;;;11.50;9.75;;;;;;;16.87;100.00;100891.66;691992;28;1700;-63
2023/09/10 00:18:55;;;;;;;9.93;8.93;;;;;;;16.87;100.00;100886.38;692891;28;1207;-63
2023/09/10 00:19:15;;;;;;;10.23;8.93;;;;;;;16.88;100.00;100896.03;693190;28;1480;-63
2023/09/10 00:19:36;;;;;;;11.47;9.53;;;;;;;16.90;100.00;100893.38;691336;28;4299;-63
2023/09/10 00:19:56;;;;;;;12.07;9.75;;;;;;;16.89;100.00;100892.53;693083;28;1434;-63
2023/09/10 00:20:17;;;;;;;11.13;9.47;;;;;;;16.90;100.00;100890.72;693657;28;1417;-63
2023/09/10 00:20:37;;;;;;;11.83;9.47;;;;;;;16.89;100.00;100892.53;691178;28;2537;-63
2023/09/10 00:20:58;;;;;;;13.40;9.30;;;;;;;16.93;100.00;100895.91;692843;28;1410;-63
2023/09/10 00:21:18;;;;;;;11.93;9.88;;;;;;;16.92;100.00;100892.44;693098;28;1334;-63
2023/09/10 00:21:39;;;;;;;11.40;9.93;;;;;;;16.92;100.00;100889.78;693272;28;1430;-63
2023/09/10 00:21:59;;;;;;;12.30;9.90;;;;;;;16.94;100.00;100895.88;692908;28;1144;-63
2023/09/10 00:22:19;;;;;;;13.40;9.98;;;;;;;16.92;100.00;100886.25;692111;28;1810;-63
2023/09/10 00:22:42;;;;;;;12.73;9.60;;;;;;;16.91;100.00;100889.81;691963;28;4496;-63
2023/09/10 00:23:03;;;;;;;13.13;9.80;;;;;;;16.89;100.00;100891.63;688572;28;1099;-63
2023/09/10 00:23:23;;;;;;;13.85;9.98;;;;;;;16.90;100.00;100888.94;689361;28;1670;-63
2023/09/10 00:23:44;;;;;;;11.83;9.50;;;;;;;16.90;100.00;100894.22;690241;28;1231;-63
2023/09/10 00:24:05;;;;;;;12.55;9.65;;;;;;;16.89;100.00;100895.16;689912;28;1270;-63
2023/09/10 00:24:25;;;;;;;11.77;9.80;;;;;;;16.88;100.00;100895.13;689460;28;1872;-63
2023/09/10 00:24:45;;;;;;;12.10;9.30;;;;;;;16.88;100.00;100888.09;691039;28;1224;-63
2023/09/10 00:25:06;;;;;;;11.67;9.20;;;;;;;16.89;100.00;100892.53;691986;28;1254;-63
2023/09/10 00:25:28;;;;;;;11.77;9.57;;;;;;;16.87;100.00;100891.66;691727;28;4569;-63
2023/09/10 00:25:49;;;;;;;11.40;9.70;;;;;;;16.87;100.00;100890.78;693477;28;1211;-63
2023/09/10 00:26:09;;;;;;;11.50;9.68;;;;;;;16.90;100.00;100898.66;693224;28;1457;-63
2023/09/10 00:26:30;;;;;;;11.68;9.68;;;;;;;16.94;100.00;100898.50;692351;28;1441;-63
2023/09/10 00:26:51;;;;;;;11.63;9.60;;;;;;;16.94;100.00;100895.88;692874;28;1227;-63
2023/09/10 00:27:13;;;;;;;11.77;9.70;;;;;;;16.95;100.00;100888.84;692882;28;1223;-63
2023/09/10 00:27:33;;;;;;;11.45;9.20;;;;;;;16.95;100.00;100894.13;691481;28;1523;-63
2023/09/10 00:27:56;;;;;;;12.23;9.60;;;;;;;16.92;100.00;100896.81;693531;28;1270;-63
2023/09/10 00:28:19;;;;;;;11.50;9.15;;;;;;;16.91;100.00;100893.31;692783;28;1388;-63
2023/09/10 00:28:39;;;;;;;11.63;9.45;;;;;;;16.89;100.00;100889.88;693031;28;4507;-63
2023/09/10 00:29:00;;;;;;;11.87;9.90;;;;;;;16.88;100.00;100895.13;690435;28;1256;-63
2023/09/10 00:29:20;;;;;;;11.83;9.87;;;;;;;16.88;100.00;100893.38;689089;28;1631;-63
2023/09/10 00:29:41;;;;;;;11.13;9.85;;;;;;;16.87;100.00;100889.00;689996;28;1235;-63
2023/09/10 00:30:03;;;;;;;11.48;9.90;;;;;;;16.84;100.00;100899.66;690407;28;1220;-63
2023/09/10 00:30:26;;;;;;;11.93;10.02;;;;;;;16.81;100.00;100890.03;686270;28;1717;-63
2023/09/10 00:30:53;;;;;;;12.02;10.30;;;;;;;16.79;100.00;100890.97;687828;28;1391;-63
2023/09/10 00:31:13;;;;;;;12.52;10.73;;;;;;;16.77;100.00;100895.44;689585;28;1438;-63
2023/09/10 00:31:34;;;;;;;11.70;10.40;;;;;;;16.76;100.00;100891.94;688400;28;4529;-63
2023/09/10 00:31:54;;;;;;;13.37;10.40;;;;;;;16.78;100.00;100894.53;688672;28;1390;-63
2023/09/10 00:32:15;;;;;;;12.75;10.40;;;;;;;16.80;100.00;100890.09;690685;28;1493;-63
2023/09/10 00:32:35;;;;;;;11.83;10.00;;;;;;;16.82;100.00;100890.91;689733;28;2188;-63
2023/09/10 00:32:55;;;;;;;12.05;9.77;;;;;;;16.79;100.00;100890.97;688378;28;1401;-63
2023/09/10 00:33:17;;;;;;;12.10;10.07;;;;;;;16.81;100.00;100895.31;687250;28;1327;-63
2023/09/10 00:33:38;;;;;;;13.45;10.55;;;;;;;16.87;100.00;100894.28;685396;28;1773;-63
2023/09/10 00:33:58;;;;;;;11.80;10.37;;;;;;;16.87;100.00;100889.00;681660;28;3627;-63
2023/09/10 00:34:18;;;;;;;12.55;10.32;;;;;;;16.91;100.00;100890.69;683285;28;1366;-63
2023/09/10 00:34:39;;;;;;;15.00;10.80;;;;;;;16.95;100.00;100889.69;682011;28;4781;-63
2023/09/10 00:34:59;;;;;;;13.07;10.43;;;;;;;16.92;100.00;100892.44;685011;28;1257;-62
2023/09/10 00:35:20;;;;;;;12.90;10.67;;;;;;;16.91;100.00;100889.81;686705;28;1781;-63
2023/09/10 00:35:40;;;;;;;13.70;10.50;;;;;;;16.90;100.00;100888.94;687180;28;1258;-63
2023/09/10 00:36:00;;;;;;;12.33;10.53;;;;;;;16.89;100.00;100892.53;686970;28;1160;-63
2023/09/10 00:36:21;;;;;;;12.17;10.87;;;;;;;16.89;100.00;100889.00;685214;28;2375;-63
2023/09/10 00:36:41;;;;;;;11.63;10.43;;;;;;;16.89;100.00;100889.00;689893;28;1339;-63
2023/09/10 00:37:02;;;;;;;11.40;10.30;;;;;;;16.87;100.00;100890.78;689460;28;1232;-63
2023/09/10 00:37:22;;;;;;;13.77;10.90;;;;;;;16.87;100.00;100886.38;688398;28;4479;-63
2023/09/10 00:37:42;;;;;;;13.35;10.77;;;;;;;16.85;100.00;100890.84;690106;28;1279;-63
2023/09/10 00:38:03;;;;;;;12.17;10.97;;;;;;;16.81;100.00;100883.91;690192;28;1200;-63
2023/09/10 00:38:24;;;;;;;11.38;10.07;;;;;;;16.82;100.00;100890.91;689491;28;966;-63
2023/09/10 00:38:44;;;;;;;12.20;10.00;;;;;;;16.80;100.00;100887.44;690519;28;1232;-63
2023/09/10 00:39:05;;;;;;;12.57;9.77;;;;;;;16.79;100.00;100880.41;690768;28;1204;-63
2023/09/10 00:39:25;;;;;;;13.27;10.20;;;;;;;16.80;100.00;100884.81;688922;28;2263;-63
2023/09/10 00:39:45;;;;;;;13.63;10.70;;;;;;;16.76;100.00;100885.78;686489;28;1247;-63
2023/09/10 00:40:08;;;;;;;14.95;11.07;;;;;;;16.74;100.00;100888.47;687604;28;1299;-63
2023/09/10 00:40:29;;;;;;;12.73;10.48;;;;;;;16.80;100.00;100888.28;685947;28;4404;-63
2023/09/10 00:40:49;;;;;;;14.13;10.33;;;;;;;16.81;100.00;100878.63;687319;28;1353;-63
2023/09/10 00:41:09;;;;;;;12.83;10.40;;;;;;;16.80;100.00;100884.81;683803;28;1566;-63
2023/09/10 00:41:30;;;;;;;13.55;10.63;;;;;;;16.79;100.00;100886.56;683899;28;1728;-63
2023/09/10 00:41:53;;;;;;;13.00;10.23;;;;;;;16.77;100.00;100880.47;683016;28;1296;-63
2023/09/10 00:42:14;;;;;;;11.95;10.13;;;;;;;16.76;100.00;100878.72;683286;28;1288;-63
2023/09/10 00:42:35;;;;;;;12.77;10.70;;;;;;;16.76;100.00;100885.78;684886;28;2010;-63
2023/09/10 00:42:56;;;;;;;12.10;10.75;;;;;;;16.75;100.00;100884.91;685482;28;1584;-63
2023/09/10 00:43:16;;;;;;;12.03;10.80;;;;;;;16.76;100.00;100884.00;682673;28;1275;-63
2023/09/10 00:43:37;;;;;;;12.63;11.15;;;;;;;16.76;100.00;100880.50;680637;28;4479;-63
2023/09/10 00:43:57;;;;;;;12.17;10.87;;;;;;;16.75;100.00;100879.63;679180;29;1217;-63
2023/09/10 00:44:18;;;;;;;11.75;10.55;;;;;;;16.75;100.00;100884.06;679965;29;1407;-63
2023/09/10 00:44:40;;;;;;;12.30;9.97;;;;;;;16.76;100.00;100885.78;679254;29;1724;-63
2023/09/10 00:45:00;;;;;;;12.63;10.15;;;;;;;16.74;100.00;100879.66;681286;28;1256;-63
2023/09/10 00:45:21;;;;;;;12.43;10.60;;;;;;;16.74;100.00;100879.66;685635;28;1515;-63
2023/09/10 00:45:41;;;;;;;11.97;10.50;;;;;;;16.75;100.00;100881.41;686556;28;1188;-63
2023/09/10 00:46:02;;;;;;;12.38;10.40;;;;;;;16.76;100.00;100880.50;686286;28;1300;-63
2023/09/10 00:46:23;;;;;;;13.23;10.73;;;;;;;16.76;100.00;100880.50;683038;28;4629;-62
2023/09/10 00:46:43;;;;;;;12.33;10.53;;;;;;;16.75;100.00;100884.91;684275;28;1408;-62
2023/09/10 00:47:04;;;;;;;11.80;10.35;;;;;;;16.76;100.00;100883.16;681017;28;1260;-63
2023/09/10 00:47:26;;;;;;;12.07;10.82;;;;;;;16.75;100.00;100878.78;681448;28;2117;-63
2023/09/10 00:47:47;;;;;;;12.40;11.05;;;;;;;16.77;100.00;100874.34;685029;28;1260;-63
2023/09/10 00:48:07;;;;;;;11.57;10.37;;;;;;;16.76;100.00;100876.09;685293;28;1222;-63
2023/09/10 00:48:28;;;;;;;12.55;10.65;;;;;;;16.75;100.00;100878.78;682866;28;1431;-63
2023/09/10 00:48:49;;;;;;;11.88;10.68;;;;;;;16.72;100.00;100874.44;685172;28;1185;-63
2023/09/10 00:49:09;;;;;;;11.97;10.73;;;;;;;16.74;100.00;100879.66;690437;28;1191;-63
2023/09/10 00:49:31;;;;;;;12.70;10.90;;;;;;;16.74;100.00;100879.66;687628;28;4472;-63
2023/09/10 00:49:52;;;;;;;12.52;10.50;;;;;;;16.73;100.00;100877.97;691798;28;2044;-63
2023/09/10 00:50:14;;;;;;;12.63;10.77;;;;;;;16.73;100.00;100877.97;689581;28;1283;-63
2023/09/10 00:50:35;;;;;;;11.70;10.45;;;;;;;16.71;100.00;100869.19;688759;28;1680;-63
2023/09/10 00:50:57;;;;;;;13.60;10.57;;;;;;;16.69;100.00;100878.03;690820;28;1330;-63
2023/09/10 00:51:19;;;;;;;13.63;10.52;;;;;;;16.67;100.00;100876.34;691165;28;1128;-63
2023/09/10 00:51:39;;;;;;;12.60;10.68;;;;;;;16.66;100.00;100886.03;690193;28;1150;-63
2023/09/10 00:52:02;;;;;;;12.67;11.07;;;;;;;16.67;100.00;100882.50;689622;28;1173;-63
2023/09/10 00:52:23;;;;;;;12.25;10.95;;;;;;;16.66;100.00;100875.47;687748;28;4429;-63
2023/09/10 00:52:50;;;;;;;12.75;10.90;;;;;;;16.65;100.00;100879.00;692684;28;1391;-63
2023/09/10 00:53:11;;;;;;;14.25;10.75;;;;;;;16.65;100.00;100873.72;692170;28;1151;-63
2023/09/10 00:53:31;;;;;;;12.02;10.77;;;;;;;16.64;100.00;100872.03;691673;28;1722;-63
2023/09/10 00:53:53;;;;;;;11.93;10.73;;;;;;;16.63;100.00;100880.84;693397;28;1018;-63
2023/09/10 00:54:15;;;;;;;13.68;11.30;;;;;;;16.63;100.00;100878.19;691481;28;1421;-63
2023/09/10 00:54:36;;;;;;;12.57;11.05;;;;;;;16.64;100.00;100877.31;687556;28;1900;-63
2023/09/10 00:54:57;;;;;;;13.52;11.32;;;;;;;16.64;100.00;100872.03;689261;28;1282;-63
2023/09/10 00:55:18;;;;;;;12.85;11.40;;;;;;;16.63;100.00;100870.28;688930;28;1485;-63
2023/09/10 00:55:40;;;;;;;13.32;11.23;;;;;;;16.64;100.00;100876.41;687736;28;4397;-63
2023/09/10 00:56:00;;;;;;;13.45;10.90;;;;;;;16.62;100.00;100871.19;689189;28;1224;-62
2023/09/10 00:56:21;;;;;;;12.63;10.68;;;;;;;16.60;100.00;100870.38;688797;28;1748;-64
2023/09/10 00:56:41;;;;;;;11.60;10.40;;;;;;;16.60;100.00;100872.13;684569;28;1268;-63
2023/09/10 00:57:05;;;;;;;12.05;10.85;;;;;;;16.59;100.00;100873.91;684651;28;1260;-62
2023/09/10 00:57:26;;;;;;;11.85;10.60;;;;;;;16.57;100.00;100870.44;683580;28;1701;-63
2023/09/10 00:57:47;;;;;;;12.00;10.70;;;;;;;16.58;100.00;100872.16;684081;28;1252;-63
2023/09/10 00:58:08;;;;;;;11.45;10.13;;;;;;;16.59;100.00;100879.19;684411;28;1249;-63
2023/09/10 00:58:28;;;;;;;12.93;10.45;;;;;;;16.60;100.00;100865.09;684539;28;4576;-63
2023/09/10 00:58:53;;;;;;;11.52;10.30;;;;;;;16.64;100.00;100869.38;690276;28;1224;-63
2023/09/10 00:59:14;;;;;;;12.63;10.30;;;;;;;16.65;100.00;100876.38;687822;28;1354;-63
2023/09/10 00:59:35;;;;;;;12.53;10.43;;;;;;;16.66;100.00;100879.91;685889;28;1903;-63
2023/09/10 00:59:56;;;;;;;12.15;10.38;;;;;;;16.68;100.00;100878.06;684945;28;1544;-63
2023/09/10 01:00:18;;;;;;;11.40;10.15;;;;;;;16.67;100.00;100877.22;685204;28;5240;-63
2023/09/10 01:00:42;;;;;;;12.63;10.30;;;;;;;16.69;100.00;100880.66;683501;28;1498;-63
2023/09/10 01:01:03;;;;;;;12.73;10.60;;;;;;;16.67;100.00;100877.22;685439;28;1464;-63
2023/09/10 01:01:24;;;;;;;12.38;10.73;;;;;;;16.66;100.00;100875.47;685740;28;5026;-63
2023/09/10 01:01:45;;;;;;;12.52;10.68;;;;;;;16.64;100.00;100877.31;686663;28;1279;-63
2023/09/10 01:02:05;;;;;;;13.17;10.70;;;;;;;16.60;100.00;100875.66;687652;28;1331;-63
2023/09/10 01:02:26;;;;;;;12.93;10.68;;;;;;;16.58;100.00;100877.44;681798;28;1376;-63
2023/09/10 01:02:49;;;;;;;12.00;10.68;;;;;;;16.58;100.00;100877.44;684191;28;1589;-63
2023/09/10 01:03:10;;;;;;;11.87;10.57;;;;;;;16.59;100.00;100881.81;684463;28;1335;-63
2023/09/10 01:03:34;;;;;;;11.60;10.18;;;;;;;16.59;100.00;100876.53;684107;28;979;-63
2023/09/10 01:03:55;;;;;;;12.13;10.50;;;;;;;16.58;100.00;100869.53;684091;28;1284;-63
2023/09/10 01:04:17;;;;;;;12.00;10.77;;;;;;;16.57;100.00;100878.34;687174;28;1423;-63
2023/09/10 01:04:37;;;;;;;11.88;10.55;;;;;;;16.57;100.00;100878.34;685539;28;5469;-63
2023/09/10 01:04:57;;;;;;;14.43;10.90;;;;;;;16.55;100.00;100874.91;687306;28;1386;-63
2023/09/10 01:05:18;;;;;;;13.50;10.60;;;;;;;16.56;100.00;100881.91;687845;28;1276;-63
2023/09/10 01:05:38;;;;;;;12.75;10.50;;;;;;;16.56;100.00;100881.91;683258;28;1509;-63
2023/09/10 01:06:00;;;;;;;12.37;10.80;;;;;;;16.56;100.00;100878.38;682840;28;1350;-63
2023/09/10 01:06:22;;;;;;;11.85;10.65;;;;;;;16.57;100.00;100886.25;684425;28;1272;-63
2023/09/10 01:06:42;;;;;;;12.00;10.80;;;;;;;16.56;100.00;100879.28;687471;28;1362;-63
2023/09/10 01:07:03;;;;;;;11.53;10.33;;;;;;;16.56;100.00;100874.00;686948;28;1303;-62
2023/09/10 01:07:23;;;;;;;11.68;10.43;;;;;;;16.57;100.00;100877.50;686591;28;4878;-63
2023/09/10 01:07:45;;;;;;;11.80;10.60;;;;;;;16.56;100.00;100881.91;685985;28;1383;-63
2023/09/10 01:08:06;;;;;;;11.73;10.50;;;;;;;16.56;100.00;100879.28;686739;28;1299;-63
2023/09/10 01:08:26;;;;;;;11.60;10.40;;;;;;;16.58;100.00;100882.72;683397;28;1395;-63
2023/09/10 01:08:47;;;;;;;11.47;10.27;;;;;;;16.58;100.00;100881.88;684961;28;1442;-63
2023/09/10 01:09:08;;;;;;;11.80;10.60;;;;;;;16.57;100.00;100883.63;683947;28;1370;-63
2023/09/10 01:09:28;;;;;;;11.80;9.95;;;;;;;16.59;100.00;100880.97;680923;28;1296;-63
2023/09/10 01:09:48;;;;;;;12.70;10.60;;;;;;;16.58;100.00;100885.38;684535;28;1264;-63
2023/09/10 01:10:09;;;;;;;12.93;10.57;;;;;;;16.60;100.00;100874.75;684704;28;1367;-63
2023/09/10 01:10:39;;;;;;;11.33;10.03;;;;;;;16.58;100.00;100873.94;683139;28;4479;-63
2023/09/10 01:11:37;;;;;;;11.80;10.20;;;;;;;16.54;100.00;100888.13;685862;28;1360;-63
2023/09/10 01:12:29;;;;;;;12.25;10.32;;;;;;;16.52;100.00;100880.25;690580;28;1287;-63
2023/09/10 01:13:00;;;;;;;12.63;10.70;;;;;;;16.53;100.00;100881.97;689332;28;1374;-63
2023/09/10 01:13:38;;;;;;;12.00;10.50;;;;;;;16.52;100.00;100882.91;685500;28;4573;-63
2023/09/10 01:14:09;;;;;;;12.05;10.63;;;;;;;16.51;100.00;100886.44;686861;28;1438;-63
2023/09/10 01:15:00;;;;;;;14.30;10.35;;;;;;;16.49;100.00;100883.84;682914;28;1327;-63
2023/09/10 01:15:28;;;;;;;12.05;10.35;;;;;;;16.53;100.00;100879.34;686330;28;1235;-64
2023/09/10 01:15:56;;;;;;;11.60;10.23;;;;;;;16.53;100.00;100884.59;687414;28;1243;-63
2023/09/10 01:16:23;;;;;;;12.48;10.15;;;;;;;16.51;100.00;100882.00;690740;28;1406;-63
2023/09/10 01:17:00;;;;;;;11.23;10.13;;;;;;;16.49;100.00;100883.84;688094;28;6723;-63
2023/09/10 01:17:23;;;;;;;12.20;10.35;;;;;;;16.48;100.00;100878.59;690314;28;1350;-63
2023/09/10 01:18:08;;;;;;;11.68;10.48;;;;;;;16.50;100.00;100880.31;689135;28;1326;-63
2023/09/10 01:18:41;;;;;;;12.02;10.38;;;;;;;16.40;100.00;100884.06;686175;28;1271;-63
2023/09/10 01:19:35;;;;;;;13.82;10.88;;;;;;;16.42;100.00;100879.63;687084;28;1326;-63
2023/09/10 01:20:23;;;;;;;12.90;10.90;;;;;;;16.71;100.00;100887.69;685680;28;5117;-63
2023/09/10 01:21:21;;;;;;;12.20;10.35;;;;;;;16.64;100.00;100879.06;688267;28;1311;-63
2023/09/10 01:22:05;;;;;;;12.07;10.75;;;;;;;16.56;100.00;100881.03;687907;28;1200;-62
2023/09/10 01:22:36;;;;;;;12.25;10.57;;;;;;;16.55;100.00;100877.53;687019;28;4987;-63
2023/09/10 01:23:04;;;;;;;11.32;10.00;;;;;;;16.50;100.00;100882.06;692155;28;1311;-61
2023/09/10 01:23:38;;;;;;;12.95;10.60;;;;;;;16.50;100.00;100882.94;691388;28;1214;-63
2023/09/10 01:24:20;;;;;;;11.82;10.50;;;;;;;16.44;100.00;100880.44;692378;28;1367;-63
2023/09/10 01:24:47;;;;;;;12.00;10.70;;;;;;;16.48;100.00;100876.81;691577;28;1274;-63
2023/09/10 01:25:09;;;;;;;12.95;11.07;;;;;;;16.54;100.00;100881.06;690868;28;1285;-63
2023/09/10 01:25:33;;;;;;;11.82;10.55;;;;;;;16.52;100.00;100878.47;688671;28;4375;-62
2023/09/10 01:25:54;;;;;;;11.35;10.20;;;;;;;16.50;100.00;100877.66;689048;28;1061;-63
2023/09/10 01:26:14;;;;;;;11.95;10.38;;;;;;;16.48;100.00;100875.97;686259;28;1419;-63
2023/09/10 01:26:41;;;;;;;11.60;10.40;;;;;;;16.50;100.00;100876.78;683137;28;1194;-63
2023/09/10 01:27:01;;;;;;;12.10;9.95;;;;;;;16.49;100.00;100875.03;682231;28;1336;-63
2023/09/10 01:27:22;;;;;;;11.98;10.40;;;;;;;16.49;100.00;100873.28;683889;28;1291;-63
2023/09/10 01:27:45;;;;;;;11.83;10.00;;;;;;;16.48;100.00;100876.81;684392;28;1253;-63
2023/09/10 01:28:06;;;;;;;11.63;10.30;;;;;;;16.45;100.00;100879.53;684243;28;856;-63
2023/09/10 01:28:27;;;;;;;12.15;10.70;;;;;;;16.45;100.00;100879.53;686794;28;4505;-63
2023/09/10 01:28:47;;;;;;;11.30;10.17;;;;;;;16.46;100.00;100877.75;688373;28;1447;-63
2023/09/10 01:29:14;;;;;;;11.87;10.63;;;;;;;16.43;100.00;100877.84;690077;28;1148;-63
2023/09/10 01:29:34;;;;;;;11.82;10.52;;;;;;;16.37;100.00;100878.88;685367;28;1050;-63
2023/09/10 01:29:55;;;;;;;12.82;11.38;;;;;;;16.34;100.00;100869.25;687596;28;891;-63
2023/09/10 01:30:15;;;;;;;13.60;11.73;;;;;;;16.34;100.00;100873.69;686888;28;3655;-62
2023/09/10 01:30:36;;;;;;;12.63;11.27;;;;;;;16.36;100.00;100868.38;685953;28;1715;-63
2023/09/10 01:30:57;;;;;;;11.57;10.38;;;;;;;16.34;100.00;100873.69;685795;28;936;-63
2023/09/10 01:31:17;;;;;;;12.13;10.50;;;;;;;16.33;100.00;100872.81;685628;28;1169;-63
2023/09/10 01:31:40;;;;;;;13.68;10.93;;;;;;;16.32;100.00;100873.72;684332;28;4490;-63
2023/09/10 01:32:05;;;;;;;12.07;10.48;;;;;;;16.32;100.00;100870.19;686570;28;845;-63
2023/09/10 01:32:32;;;;;;;11.55;10.35;;;;;;;16.33;100.00;100866.66;680925;28;1647;-63
2023/09/10 01:32:59;;;;;;;11.77;10.47;;;;;;;16.36;100.00;100869.22;681514;29;1033;-63
2023/09/10 01:33:35;;;;;;;13.18;10.88;;;;;;;16.43;100.00;100869.94;679591;29;949;-63
2023/09/10 01:34:01;;;;;;;14.80;10.60;;;;;;;16.43;100.00;100865.50;678966;29;1237;-63
2023/09/10 01:34:26;;;;;;;12.38;10.73;;;;;;;16.39;100.00;100869.13;681592;29;4621;-63
2023/09/10 01:34:53;;;;;;;11.75;10.50;;;;;;;16.40;100.00;100870.88;681679;29;953;-63
2023/09/10 01:35:59;;;;;;;13.65;10.73;;;;;;;16.37;100.00;100873.59;682588;28;889;-62
2023/09/10 01:36:35;;;;;;;11.80;10.43;;;;;;;16.36;100.00;100869.22;678528;29;1467;-63
2023/09/10 01:37:01;;;;;;;12.52;10.50;;;;;;;16.36;100.00;100873.63;688920;28;1043;-63
2023/09/10 01:37:34;;;;;;;11.35;10.15;;;;;;;16.33;100.00;100872.81;687385;28;4309;-63
2023/09/10 01:38:12;;;;;;;11.75;9.90;;;;;;;16.28;100.00;100866.78;686037;28;2223;-63
2023/09/10 01:38:43;;;;;;;13.55;10.40;;;;;;;16.29;100.00;100870.28;686320;28;2375;-62
2023/09/10 01:39:18;;;;;;;12.50;11.20;;;;;;;16.31;100.00;100874.63;687164;28;985;-63
2023/09/10 01:39:41;;;;;;;13.40;10.77;;;;;;;16.33;100.00;100877.22;688726;28;1922;-62
2023/09/10 01:40:08;;;;;;;12.40;10.82;;;;;;;16.34;100.00;100876.31;689791;28;987;-63
2023/09/10 01:40:34;;;;;;;12.13;10.82;;;;;;;16.31;100.00;100872.00;688163;28;4709;-63
2023/09/10 01:41:02;;;;;;;11.88;10.38;;;;;;;16.29;100.00;100871.13;690200;28;1049;-63
2023/09/10 01:41:25;;;;;;;11.73;10.40;;;;;;;16.28;100.00;100868.53;686814;28;979;-63
2023/09/10 01:41:49;;;;;;;12.75;10.40;;;;;;;16.24;100.00;100866.88;688673;28;2149;-62
2023/09/10 01:42:10;;;;;;;12.93;9.93;;;;;;;16.23;100.00;100867.81;687373;28;1483;-63
2023/09/10 01:42:31;;;;;;;11.95;10.38;;;;;;;16.25;100.00;100880.03;686570;28;1702;-63
2023/09/10 01:42:52;;;;;;;11.82;10.27;;;;;;;16.23;100.00;100873.09;682290;28;1378;-63
2023/09/10 01:43:12;;;;;;;11.43;10.10;;;;;;;16.23;100.00;100873.09;686303;28;1134;-63
2023/09/10 01:43:34;;;;;;;12.32;10.63;;;;;;;16.25;100.00;100872.13;684772;28;4608;-63
2023/09/10 01:43:57;;;;;;;12.18;10.63;;;;;;;16.24;100.00;100873.06;684986;28;1435;-63
2023/09/10 01:44:19;;;;;;;11.60;10.40;;;;;;;16.22;100.00;100874.84;683775;28;1131;-63
2023/09/10 01:44:41;;;;;;;12.15;10.57;;;;;;;16.21;100.00;100870.47;684602;28;2078;-62
2023/09/10 01:45:03;;;;;;;11.77;10.48;;;;;;;16.21;100.00;100872.25;684756;28;1361;-63
2023/09/10 01:45:25;;;;;;;12.95;10.98;;;;;;;16.23;100.00;100870.47;685862;28;1035;-62
2023/09/10 01:45:48;;;;;;;11.30;10.20;;;;;;;16.24;100.00;100872.16;684219;28;992;-63
2023/09/10 01:46:08;;;;;;;12.65;11.02;;;;;;;16.23;100.00;100873.94;682898;28;1202;-62
2023/09/10 01:46:30;;;;;;;15.50;11.82;;;;;;;16.21;100.00;100872.25;682867;28;4537;-62
2023/09/10 01:46:53;;;;;;;13.52;10.70;;;;;;;16.24;100.00;100872.16;685204;28;1197;-63